KHLG

Wheeling Ohio Co Airport

Wheeling, West Virginia, USA
METAR KHLG 181953Z 29003KT 10SM SCT013 OVC025 02/M02 A3009 RMK AO2 SLP204 T00171017
Observed Flight Rules
Jan-18 @ 19:53 UTC (11 minutes ago) Marginal Visual Flight Rules
Wind Visibility Clouds
290° at 3 knots 10 miles
  • Scattered at 1,300' AGL
  • Overcast at 2,500' AGL
Temperatures Readings
Current 2°C / 36°F
Dewpoint -2°C / 28°F
Humidity 75%
Altimeter 30.09" Hg
Pressure 1020.4 hPa
Elevation 372
METAR KHLG 181953Z 29003KT 10SM SCT013 OVC025 02/M02 A3009 RMK AO2 SLP204 T00171017
Observed Flight Rules
Jan-18 @ 19:53 UTC
(11 minutes ago)
MVFR
Wind Visibility
290° at 3 knots 10 miles
Clouds
  • Scattered at 1,300' AGL
  • Overcast at 2,500' AGL
Temperature Dewpoint
2°C / 36°F -2°C / 28°F
Humidity Altimeter Pressure
75% 30.09" Hg 1020.4 hPa